Skip Navigation Links Skip Navigation Links

Current Weather

Danville Regional, Danville, Va.

For information only: do not use for flight planning or navigation.
Latest weather
Observation time Thursday, October 18, 2018 1:53 AM EDT
Local time Thursday, October 18, 2018 2:08 AM EDT
Flight conditions Visual Meteorological Conditions
Winds
Wind speed calm
Visibility 10 mi.
Sky condition
Ceiling unlimited
Sky clear
Temperature 51°F
Dewpoint 45°F
Altimeter 30.28 in.Hg
Pressure change last 3 hours-0.03 in.Hg
Pressure rising more quickly
Derived measurements
Relative humidity 79%
Density altitude -219 ft.
Sea-level pressure 30.26 in.Hg
Climate data
Temperature minimum, last 6 hours 51°F
Temperature maximum, last 6 hours 62°F
Remarks
Fully automated report.
Automated weather observing station with precipitation discriminator.
METAR KDAN 180553Z AUTO 00000KT 10SM CLR 11/07 A3028 RMK AO2 SLP247 T01060072 10167 20106 53010

Settings

Location code

InnerDrive.Weather 4.0.6770.0 Release CLR 4.0.30319.42000
Copyright ©2018 Inner Drive Technology. All rights reserved. Portions Copyright ©1986-2018 David Braverman.

Find weather

Site navigation


Skip Navigation Links

Place info

Page info

PayPal - The safer, easier way to pay online!

Return home.

Copyright ©2018 Inner Drive Technology. Purveyors of fine, hand-crafted computer software. Page printed 2018-10-18T06:08:09 UTC.